AirNav   Airventure
 
 1042 users online  

2JY5 Jet Line South Heliport
Cinnaminson, New Jersey, USA


FAA INFORMATION EFFECTIVE 20 JULY 2017

Location

FAA Identifier: 2JY5
Lat/Long: 40-00-57.0000N / 074-58-32.8000W
40-00.950000N / 074-58.546667W
40.0158333 / -74.9757778
(estimated)
Elevation: 45 ft. / 14 m (estimated)
From city: 1 mile N of CINNAMINSON, NJ
Time zone: UTC -4 (UTC -5 during Standard Time)
Zip code: 08077

Heliport Operations

Heliport use: Private use. Permission required prior to landing
Activation date: 12/2006
Control tower: no
ARTCC: WASHINGTON CENTER
FSS: MILLVILLE FLIGHT SERVICE STATION
Attendance: DAWN-DUSK
Wind indicator: yes
Segmented circle: no

Heliport Communications

WX ASOS at PNE (4 nm N): PHONE 215-677-0146
WX ASOS at VAY (7 nm SE): 119.325 (609-267-1176)
WX ASOS at PHL (15 nm SW): PHONE 215-492-9617
WX AWOS-3 at LOM (15 nm NW): 118.925 (215-646-1068)
WX ASOS at TTN (17 nm NE): 126.77 (609-538-8690)

Nearby radio navigation aids

VOR radial/distance  VOR name  Freq  Var
PNEr169/(4.3)NORTH PHILADELPHIA VOR112.0010W
ARDr202/14.6YARDLEY VOR/DME108.2010W
GXUr283/17.4MC GUIRE VORTAC110.6012W
RBVr253/24.7ROBBINSVILLE VORTAC113.8010W
OODr043/27.3WOODSTOWN VORTAC112.8010W
CYNr305/27.7COYLE VORTAC113.4010W
VCNr009/28.7CEDAR LAKE VORTAC115.2010W
PTWr124/29.5POTTSTOWN VORTAC116.5009W
MXEr089/32.5MODENA VORTAC113.2009W
DQOr065/35.4DUPONT VORTAC114.0010W
SBJr207/35.7SOLBERG VOR/DME112.9010W
ACYr341/38.3ATLANTIC CITY VORTAC108.6010W

 
NDB name  Hdg/Dist  Freq  Var  ID
AMBLER127/15.727512WING .. -. --.
LAKEHURST278/29.539611WNEL -. . .-..
RAINBOW023/36.636311WRNB .-. -. -...

Heliport Services

Runway Information

Helipad H1

Dimensions: 25 x 25 ft. / 8 x 8 m
Surface: asphalt
Traffic pattern: leftleft

Heliport Ownership and Management from official FAA records

Ownership: Privately-owned
Owner: JET 3G LLC
55 JACOBUS AVE
S. KEARNY, NJ 07032
Phone 973-588-3544
Manager: STEVEN EPSTEIN
55 JACOBUS AVE
S. KEARNY, NJ 07032
Phone (201) 738-2739

Instrument Procedures

There are no published instrument procedures at 2JY5.

Some nearby airports with instrument procedures:

KPNE - Northeast Philadelphia Airport (4 nm N)
KVAY - South Jersey Regional Airport (7 nm SE)
N14 - Flying W Airport (9 nm SE)
N73 - Red Lion Airport (12 nm SE)
19N - Camden County Airport (14 nm S)
KPHL - Philadelphia International Airport (15 nm SW)
KLOM - Wings Field Airport (15 nm NW)
KTTN - Trenton Mercer Airport (17 nm NE)
KWRI - McGuire Field (Joint Base Mc Guire Dix Lakehurst) Airport (18 nm E)
17N - Cross Keys Airport (19 nm S)
 
Loc | Ops | Rwys | IFR | FBO | Links
Com | Nav | Svcs | Stats | Notes


 
Area around 2JY5 (Jet Line South Heliport)
 
Road maps at: MapQuest Bing Google
 
Aerial photo
No photo
 
Sectional chart

 
Airport distance calculator
Flying to Jet Line South Heliport? Find the distance to fly.

From to 2JY5

Sunrise and sunset
Times for 25-Jul-2017
 Local
(UTC-4)
 Zulu
(UTC)
Morning civil twilight05:2209:22
Sunrise05:5309:53
Sunset20:2000:20
Evening civil twilight20:5100:51

Current date and time
Zulu (UTC)  25-Jul-2017 23:44:17
Local (UTC-4)  25-Jul-2017 19:44:17
 
METAR
KPNE 
4nm NW 
252254Z 05004KT 10SM BKN045 OVC050 23/19 A3015 RMK AO2 SLP208 T02280189
KVAY 
8nm SE 
ASOS 119.325 609-267-1176
252331Z AUTO 00000KT 8SM -RA BKN020 BKN044 OVC070 21/19 A3015 RMK AO2 RAB24 P0000 T02110189
KPHL 
15nm SW 
252254Z 00000KT 10SM BKN035 OVC050 24/17 A3013 RMK AO2 SLP201 T02440167
KLOM 
15nm NW 
252315Z AUTO 00000KT 10SM BKN046 BKN065 OVC070 21/18 A3016 RMK AO1
KTTN 
18nm NE 
ASOS 133.70 609-538-8690
252253Z 05008KT 7SM FEW024 BKN030 OVC042 20/18 A3014 RMK AO2 SLP199 T02000183
KWRI 
18nm E 
252333Z AUTO 07004KT 2SM +RA BR OVC018 20/18 A3014 RMK AO2 VIS 2V2 1/2 CIG 018V022 SLP206
TAF
KPNE 
4nm NW 
251617Z 2516/2612 09006KT P6SM SCT025 BKN050 FM251900 01007KT P6SM BKN035 FM260800 VRB03KT P6SM OVC025
KPHL 
15nm SW 
252100Z 2521/2624 07005KT P6SM SCT035 BKN060 FM260700 07004KT P6SM BKN025 FM261300 09005KT P6SM BKN035 FM261600 16007KT P6SM BKN050
KTTN 
18nm NE 
251502Z 2515/2612 08004KT P6SM OVC009 FM251600 05005KT P6SM BKN015 FM251800 03007KT P6SM BKN030 FM252000 02007KT P6SM BKN050 FM260600 03005KT P6SM OVC020
KWRI 
18nm E 
251800Z 2518/2624 06012KT 9999 BKN030 QNH3007INS TEMPO 2519/2521 BKN019 BECMG 2604/2605 07006KT 9999 OVC015 QNH3008INS BECMG 2614/2615 11009KT 9999 SCT015 BKN030 QNH3008INS TX23/2518Z TN16/2609Z
NOTAMs
Click for the latest NOTAMs
NOTAMs are issued by the DoD/FAA and will open in a separate window not controlled by AirNav.

 

 
 

Would you like to see your business listed on this page?

 If your business provides an interesting product or service to pilots, flight crews, aircraft, or users of the Jet Line South Heliport, you should consider listing it here.  To start the listing process, click on the button below
 
Add a business
 

Other Pages about Jet Line South Heliport

Update a link
 
Copyright © AirNav, LLC. All rights reserved. Privacy Policy  Contact